EJU68QN LIMC-LFPO
Flight info
| Callsign | EJU68QN |
|---|---|
| Flight time | 1h 0m |
| Altitude | 32000 |
| Route | AOSTA DCT ORSUD DCT MOLUS DCT UNKIR DCT DJL |
| Aircraft | A320/M-SDE3FGHIRWY/LB1 |
Departure
| Time | 2026-05-04 20:21 |
|---|---|
| Airport | Milan Malpensa International Airport (LIMC) |
Arrival
| Time | 2026-05-04 21:22 |
|---|---|
| Airport | Paris-Orly Airport (LFPO) |
| Time | Latitude | Longitude | Altitude | Speed | Heading |
|---|---|---|---|---|---|
| 2026-05-04 19:44 | 45.64515 | 8.72228 | 736 ft | 0 kts | 34° |
| 2026-05-04 20:09 | 45.64515 | 8.72227 | 736 ft | 1 kts | 34° |
| 2026-05-04 20:10 | 45.64495 | 8.72207 | 734 ft | 4 kts | 38° |
| 2026-05-04 20:10 | 45.64475 | 8.72182 | 735 ft | 4 kts | 47° |
| 2026-05-04 20:10 | 45.64459 | 8.72152 | 736 ft | 4 kts | 77° |
| 2026-05-04 20:10 | 45.64459 | 8.72130 | 735 ft | 0 kts | 128° |
| 2026-05-04 20:12 | 45.64432 | 8.72178 | 736 ft | 11 kts | 129° |
| 2026-05-04 20:13 | 45.64428 | 8.72289 | 735 ft | 13 kts | 78° |
| 2026-05-04 20:13 | 45.64424 | 8.72414 | 734 ft | 14 kts | 133° |
| 2026-05-04 20:13 | 45.64326 | 8.72452 | 736 ft | 17 kts | 168° |
| 2026-05-04 20:13 | 45.64193 | 8.72488 | 736 ft | 22 kts | 168° |
| 2026-05-04 20:14 | 45.64044 | 8.72536 | 736 ft | 22 kts | 162° |
| 2026-05-04 20:14 | 45.63891 | 8.72583 | 734 ft | 23 kts | 167° |
| 2026-05-04 20:14 | 45.63734 | 8.72625 | 736 ft | 23 kts | 169° |
| 2026-05-04 20:14 | 45.63574 | 8.72672 | 734 ft | 24 kts | 168° |
| 2026-05-04 20:15 | 45.63412 | 8.72714 | 735 ft | 24 kts | 171° |
| 2026-05-04 20:15 | 45.63248 | 8.72759 | 736 ft | 24 kts | 169° |
| 2026-05-04 20:15 | 45.63086 | 8.72805 | 736 ft | 24 kts | 169° |
| 2026-05-04 20:15 | 45.62923 | 8.72847 | 736 ft | 24 kts | 169° |
| 2026-05-04 20:16 | 45.62763 | 8.72892 | 736 ft | 23 kts | 169° |
| 2026-05-04 20:16 | 45.62605 | 8.72935 | 737 ft | 23 kts | 169° |
| 2026-05-04 20:16 | 45.62450 | 8.72979 | 737 ft | 23 kts | 169° |
| 2026-05-04 20:16 | 45.62296 | 8.73019 | 737 ft | 22 kts | 170° |
| 2026-05-04 20:17 | 45.62146 | 8.73064 | 737 ft | 22 kts | 169° |
| 2026-05-04 20:17 | 45.61997 | 8.73103 | 737 ft | 22 kts | 168° |
| 2026-05-04 20:17 | 45.61841 | 8.73147 | 737 ft | 23 kts | 169° |
| 2026-05-04 20:17 | 45.61719 | 8.73247 | 737 ft | 17 kts | 121° |
| 2026-05-04 20:18 | 45.61652 | 8.73394 | 737 ft | 18 kts | 124° |
| 2026-05-04 20:18 | 45.61594 | 8.73520 | 736 ft | 14 kts | 117° |
| 2026-05-04 20:18 | 45.61582 | 8.73612 | 737 ft | 0 kts | 77° |
| 2026-05-04 20:19 | 45.61586 | 8.73641 | 737 ft | 6 kts | 76° |
| 2026-05-04 20:19 | 45.61602 | 8.73722 | 737 ft | 9 kts | 67° |
| 2026-05-04 20:19 | 45.61636 | 8.73732 | 737 ft | 0 kts | 347° |
| 2026-05-04 20:20 | 45.61640 | 8.73731 | 737 ft | 8 kts | 347° |
| 2026-05-04 20:20 | 45.61980 | 8.73634 | 735 ft | 87 kts | 349° |
| 2026-05-04 20:20 | 45.62783 | 8.73413 | 738 ft | 145 kts | 348° |
| 2026-05-04 20:21 | 45.63917 | 8.73088 | 859 ft | 180 kts | 347° |
| 2026-05-04 20:21 | 45.65164 | 8.72772 | 1536 ft | 182 kts | 350° |
| 2026-05-04 20:21 | 45.67650 | 8.72610 | 3101 ft | 177 kts | 360° |
| 2026-05-04 20:22 | 45.68875 | 8.72613 | 3808 ft | 174 kts | 359° |
| 2026-05-04 20:22 | 45.70109 | 8.72613 | 4253 ft | 189 kts | 359° |
| 2026-05-04 20:22 | 45.71477 | 8.72564 | 4609 ft | 206 kts | 350° |
| 2026-05-04 20:22 | 45.72781 | 8.71550 | 4832 ft | 227 kts | 308° |
| 2026-05-04 20:23 | 45.73320 | 8.69400 | 5246 ft | 243 kts | 270° |
| 2026-05-04 20:23 | 45.73100 | 8.67011 | 6079 ft | 243 kts | 256° |
| 2026-05-04 20:23 | 45.72653 | 8.64691 | 6983 ft | 242 kts | 252° |
| 2026-05-04 20:23 | 45.72164 | 8.62372 | 7826 ft | 244 kts | 251° |
| 2026-05-04 20:24 | 45.71567 | 8.60112 | 8666 ft | 243 kts | 238° |
| 2026-05-04 20:24 | 45.70589 | 8.58034 | 9132 ft | 264 kts | 231° |
| 2026-05-04 20:24 | 45.69511 | 8.55776 | 9756 ft | 275 kts | 233° |
| 2026-05-04 20:24 | 45.68465 | 8.53449 | 10425 ft | 286 kts | 234° |
| 2026-05-04 20:25 | 45.67360 | 8.50936 | 10703 ft | 310 kts | 235° |
| 2026-05-04 20:25 | 45.66205 | 8.48306 | 11209 ft | 322 kts | 236° |
| 2026-05-04 20:25 | 45.65007 | 8.45583 | 11947 ft | 326 kts | 236° |
| 2026-05-04 20:25 | 45.63788 | 8.42826 | 12732 ft | 329 kts | 236° |
| 2026-05-04 20:26 | 45.62505 | 8.40110 | 13494 ft | 331 kts | 230° |
| 2026-05-04 20:26 | 45.61024 | 8.37578 | 14199 ft | 334 kts | 229° |
| 2026-05-04 20:26 | 45.59642 | 8.34898 | 14835 ft | 339 kts | 239° |
| 2026-05-04 20:26 | 45.58790 | 8.31734 | 15469 ft | 345 kts | 257° |
| 2026-05-04 20:27 | 45.58701 | 8.28289 | 16101 ft | 354 kts | 276° |
| 2026-05-04 20:27 | 45.59348 | 8.24872 | 16744 ft | 360 kts | 285° |
| 2026-05-04 20:27 | 45.60127 | 8.21454 | 17405 ft | 363 kts | 285° |
| 2026-05-04 20:27 | 45.60921 | 8.18022 | 18057 ft | 366 kts | 285° |
| 2026-05-04 20:28 | 45.61724 | 8.14559 | 18652 ft | 369 kts | 285° |
| 2026-05-04 20:28 | 45.62532 | 8.11049 | 19191 ft | 373 kts | 285° |
| 2026-05-04 20:28 | 45.63340 | 8.07517 | 19743 ft | 376 kts | 285° |
| 2026-05-04 20:28 | 45.64153 | 8.03951 | 20277 ft | 380 kts | 285° |
| 2026-05-04 20:29 | 45.64974 | 8.00337 | 20822 ft | 383 kts | 285° |
| 2026-05-04 20:29 | 45.65795 | 7.96700 | 21343 ft | 387 kts | 285° |
| 2026-05-04 20:29 | 45.66618 | 7.93029 | 21844 ft | 390 kts | 285° |
| 2026-05-04 20:29 | 45.67457 | 7.89311 | 22338 ft | 394 kts | 285° |
| 2026-05-04 20:30 | 45.68302 | 7.85573 | 22849 ft | 397 kts | 285° |
| 2026-05-04 20:30 | 45.69154 | 7.81803 | 23350 ft | 400 kts | 284° |
| 2026-05-04 20:30 | 45.70011 | 7.77985 | 23799 ft | 404 kts | 284° |
| 2026-05-04 20:30 | 45.70869 | 7.74147 | 24209 ft | 407 kts | 284° |
| 2026-05-04 20:31 | 45.71729 | 7.70284 | 24643 ft | 409 kts | 284° |
| 2026-05-04 20:31 | 45.72602 | 7.66390 | 25071 ft | 411 kts | 285° |
| 2026-05-04 20:31 | 45.73824 | 7.62663 | 25454 ft | 420 kts | 301° |
| 2026-05-04 20:31 | 45.75653 | 7.59368 | 25873 ft | 425 kts | 306° |
| 2026-05-04 20:32 | 45.77559 | 7.56110 | 26292 ft | 427 kts | 306° |
| 2026-05-04 20:32 | 45.79471 | 7.52847 | 26697 ft | 429 kts | 306° |
| 2026-05-04 20:32 | 45.81391 | 7.49565 | 27090 ft | 431 kts | 306° |
| 2026-05-04 20:32 | 45.83329 | 7.46253 | 27472 ft | 434 kts | 306° |
| 2026-05-04 20:33 | 45.85273 | 7.42930 | 27866 ft | 437 kts | 306° |
| 2026-05-04 20:33 | 45.87227 | 7.39585 | 28247 ft | 439 kts | 306° |
| 2026-05-04 20:33 | 45.89194 | 7.36207 | 28605 ft | 441 kts | 306° |
| 2026-05-04 20:33 | 45.91164 | 7.32817 | 28972 ft | 444 kts | 306° |
| 2026-05-04 20:34 | 45.93143 | 7.29407 | 29283 ft | 446 kts | 306° |
| 2026-05-04 20:34 | 45.95111 | 7.26010 | 29658 ft | 448 kts | 305° |
| 2026-05-04 20:34 | 45.97106 | 7.22559 | 29997 ft | 450 kts | 305° |
| 2026-05-04 20:34 | 45.99138 | 7.19044 | 30296 ft | 453 kts | 305° |
| 2026-05-04 20:35 | 46.01161 | 7.15548 | 30583 ft | 454 kts | 305° |
| 2026-05-04 20:35 | 46.03153 | 7.12098 | 30852 ft | 455 kts | 305° |
| 2026-05-04 20:35 | 46.05203 | 7.08538 | 31166 ft | 457 kts | 305° |
| 2026-05-04 20:35 | 46.07210 | 7.05050 | 31374 ft | 457 kts | 304° |
| 2026-05-04 20:36 | 46.09238 | 7.01526 | 31677 ft | 457 kts | 305° |
| 2026-05-04 20:36 | 46.11256 | 6.98017 | 32113 ft | 454 kts | 305° |
| 2026-05-04 20:36 | 46.13296 | 6.94470 | 32574 ft | 451 kts | 305° |
| 2026-05-04 20:36 | 46.15264 | 6.91043 | 32977 ft | 449 kts | 304° |
| 2026-05-04 20:37 | 46.17248 | 6.87581 | 33400 ft | 447 kts | 304° |
| 2026-05-04 20:37 | 46.19251 | 6.84072 | 33835 ft | 445 kts | 304° |
| 2026-05-04 20:37 | 46.21187 | 6.80678 | 34206 ft | 443 kts | 304° |
| 2026-05-04 20:37 | 46.23141 | 6.77248 | 34571 ft | 442 kts | 304° |
| 2026-05-04 20:38 | 46.25089 | 6.73822 | 34885 ft | 442 kts | 304° |
| 2026-05-04 20:38 | 46.27042 | 6.70388 | 35186 ft | 441 kts | 304° |
| 2026-05-04 20:38 | 46.28915 | 6.67093 | 35421 ft | 440 kts | 304° |
| 2026-05-04 20:38 | 46.30854 | 6.63675 | 35678 ft | 440 kts | 304° |
| 2026-05-04 20:39 | 46.32789 | 6.60254 | 35929 ft | 440 kts | 304° |
| 2026-05-04 20:39 | 46.34722 | 6.56834 | 36013 ft | 438 kts | 304° |
| 2026-05-04 20:39 | 46.38570 | 6.50024 | 36019 ft | 436 kts | 304° |
| 2026-05-04 20:40 | 46.42397 | 6.43212 | 36019 ft | 436 kts | 304° |
| 2026-05-04 20:40 | 46.46217 | 6.36401 | 36021 ft | 436 kts | 304° |
| 2026-05-04 20:41 | 46.50050 | 6.29575 | 36017 ft | 436 kts | 304° |
| 2026-05-04 20:41 | 46.53879 | 6.22733 | 36021 ft | 436 kts | 304° |
| 2026-05-04 20:42 | 46.57698 | 6.15888 | 36032 ft | 437 kts | 304° |
| 2026-05-04 20:42 | 46.61522 | 6.09015 | 36025 ft | 437 kts | 304° |
| 2026-05-04 20:43 | 46.65334 | 6.02138 | 36030 ft | 437 kts | 303° |
| 2026-05-04 20:43 | 46.69147 | 5.95243 | 36025 ft | 437 kts | 303° |
| 2026-05-04 20:44 | 46.72951 | 5.88351 | 36025 ft | 437 kts | 303° |
| 2026-05-04 20:44 | 46.76759 | 5.81441 | 36023 ft | 437 kts | 303° |
| 2026-05-04 20:45 | 46.80563 | 5.74522 | 36019 ft | 437 kts | 304° |
| 2026-05-04 20:45 | 46.84859 | 5.68167 | 36007 ft | 442 kts | 311° |
| 2026-05-04 20:46 | 46.89093 | 5.61718 | 36005 ft | 437 kts | 305° |
| 2026-05-04 20:46 | 46.93026 | 5.54993 | 36000 ft | 438 kts | 305° |
| 2026-05-04 20:47 | 46.97020 | 5.48199 | 35996 ft | 438 kts | 305° |
| 2026-05-04 20:47 | 47.00955 | 5.41469 | 35996 ft | 437 kts | 305° |
| 2026-05-04 20:48 | 47.04908 | 5.34681 | 35983 ft | 437 kts | 305° |
| 2026-05-04 20:48 | 47.08848 | 5.27891 | 35992 ft | 438 kts | 305° |
| 2026-05-04 20:49 | 47.12795 | 5.21082 | 35997 ft | 438 kts | 305° |
| 2026-05-04 20:49 | 47.16741 | 5.14259 | 35995 ft | 438 kts | 305° |
| 2026-05-04 20:50 | 47.20680 | 5.07435 | 35985 ft | 438 kts | 305° |
| 2026-05-04 20:50 | 47.24616 | 5.00596 | 35982 ft | 438 kts | 305° |
| 2026-05-04 20:51 | 47.28551 | 4.93737 | 35978 ft | 438 kts | 305° |
| 2026-05-04 20:51 | 47.32482 | 4.86871 | 35978 ft | 439 kts | 305° |
| 2026-05-04 20:52 | 47.36418 | 4.79969 | 35976 ft | 440 kts | 305° |
| 2026-05-04 20:52 | 47.40343 | 4.73055 | 35977 ft | 440 kts | 305° |
| 2026-05-04 20:53 | 47.44279 | 4.66116 | 35967 ft | 441 kts | 305° |
| 2026-05-04 20:53 | 47.47556 | 4.60329 | 35966 ft | 441 kts | 305° |
| 2026-05-04 20:54 | 47.51491 | 4.53371 | 35963 ft | 442 kts | 305° |
| 2026-05-04 20:54 | 47.55433 | 4.46389 | 35965 ft | 442 kts | 305° |
| 2026-05-04 20:55 | 47.59366 | 4.39383 | 35964 ft | 442 kts | 305° |
| 2026-05-04 20:55 | 47.63296 | 4.32373 | 35963 ft | 442 kts | 305° |
| 2026-05-04 20:56 | 47.67224 | 4.25362 | 35961 ft | 442 kts | 305° |
| 2026-05-04 20:56 | 47.71154 | 4.18327 | 35958 ft | 442 kts | 305° |
| 2026-05-04 20:57 | 47.73116 | 4.14806 | 35742 ft | 443 kts | 305° |
| 2026-05-04 20:57 | 47.75074 | 4.11286 | 35488 ft | 442 kts | 305° |
| 2026-05-04 20:57 | 47.77010 | 4.07803 | 35139 ft | 442 kts | 305° |
| 2026-05-04 20:57 | 47.78997 | 4.04209 | 34267 ft | 447 kts | 304° |
| 2026-05-04 20:58 | 47.80970 | 4.00634 | 33615 ft | 446 kts | 304° |
| 2026-05-04 20:58 | 47.82906 | 3.97130 | 33067 ft | 441 kts | 304° |
| 2026-05-04 20:58 | 47.84845 | 3.93625 | 32502 ft | 437 kts | 304° |
| 2026-05-04 20:58 | 47.86767 | 3.90149 | 31941 ft | 434 kts | 304° |
| 2026-05-04 20:59 | 47.88681 | 3.86685 | 31389 ft | 431 kts | 305° |
| 2026-05-04 20:59 | 47.90576 | 3.83252 | 30842 ft | 428 kts | 305° |
| 2026-05-04 20:59 | 47.92455 | 3.79834 | 30306 ft | 426 kts | 305° |
| 2026-05-04 20:59 | 47.94330 | 3.76418 | 29721 ft | 424 kts | 305° |
| 2026-05-04 21:00 | 47.96186 | 3.73034 | 29185 ft | 420 kts | 305° |
| 2026-05-04 21:00 | 47.98020 | 3.69682 | 28674 ft | 415 kts | 305° |
| 2026-05-04 21:00 | 47.99842 | 3.66349 | 28160 ft | 411 kts | 306° |
| 2026-05-04 21:00 | 48.01642 | 3.63062 | 27656 ft | 407 kts | 306° |
| 2026-05-04 21:01 | 48.03422 | 3.59805 | 27176 ft | 403 kts | 305° |
| 2026-05-04 21:01 | 48.05188 | 3.56565 | 26698 ft | 399 kts | 305° |
| 2026-05-04 21:01 | 48.06749 | 3.53695 | 26277 ft | 396 kts | 305° |
| 2026-05-04 21:01 | 48.08474 | 3.50526 | 25811 ft | 392 kts | 306° |
| 2026-05-04 21:02 | 48.10182 | 3.47379 | 25367 ft | 388 kts | 306° |
| 2026-05-04 21:02 | 48.11873 | 3.44258 | 24910 ft | 385 kts | 306° |
| 2026-05-04 21:02 | 48.13553 | 3.41150 | 24457 ft | 382 kts | 306° |
| 2026-05-04 21:02 | 48.15241 | 3.38017 | 23999 ft | 394 kts | 306° |
| 2026-05-04 21:03 | 48.16967 | 3.34807 | 23498 ft | 397 kts | 306° |
| 2026-05-04 21:03 | 48.18702 | 3.31586 | 22962 ft | 395 kts | 306° |
| 2026-05-04 21:03 | 48.20425 | 3.28396 | 22472 ft | 393 kts | 306° |
| 2026-05-04 21:03 | 48.22136 | 3.25226 | 21981 ft | 390 kts | 306° |
| 2026-05-04 21:04 | 48.23818 | 3.22109 | 21501 ft | 387 kts | 306° |
| 2026-05-04 21:04 | 48.25504 | 3.18979 | 21009 ft | 385 kts | 306° |
| 2026-05-04 21:04 | 48.27177 | 3.15867 | 20502 ft | 382 kts | 307° |
| 2026-05-04 21:04 | 48.28843 | 3.12763 | 20028 ft | 380 kts | 307° |
| 2026-05-04 21:05 | 48.30492 | 3.09689 | 19550 ft | 377 kts | 307° |
| 2026-05-04 21:05 | 48.32149 | 3.06589 | 19065 ft | 375 kts | 307° |
| 2026-05-04 21:05 | 48.33709 | 3.03516 | 18496 ft | 374 kts | 300° |
| 2026-05-04 21:05 | 48.34873 | 3.00030 | 17952 ft | 374 kts | 294° |
| 2026-05-04 21:06 | 48.35995 | 2.96449 | 17465 ft | 373 kts | 294° |
| 2026-05-04 21:06 | 48.37086 | 2.92963 | 16994 ft | 372 kts | 294° |
| 2026-05-04 21:06 | 48.38183 | 2.89457 | 16540 ft | 369 kts | 294° |
| 2026-05-04 21:06 | 48.39271 | 2.85974 | 16089 ft | 367 kts | 294° |
| 2026-05-04 21:07 | 48.40353 | 2.82511 | 15636 ft | 365 kts | 294° |
| 2026-05-04 21:07 | 48.41428 | 2.79053 | 15184 ft | 363 kts | 294° |
| 2026-05-04 21:07 | 48.42488 | 2.75623 | 14735 ft | 361 kts | 294° |
| 2026-05-04 21:07 | 48.43541 | 2.72213 | 14291 ft | 359 kts | 294° |
| 2026-05-04 21:08 | 48.44589 | 2.68819 | 13853 ft | 356 kts | 294° |
| 2026-05-04 21:08 | 48.45597 | 2.65424 | 13394 ft | 354 kts | 289° |
| 2026-05-04 21:08 | 48.46177 | 2.61857 | 12950 ft | 350 kts | 276° |
| 2026-05-04 21:08 | 48.46363 | 2.58205 | 12547 ft | 348 kts | 273° |
| 2026-05-04 21:09 | 48.46536 | 2.54592 | 12209 ft | 343 kts | 274° |
| 2026-05-04 21:09 | 48.46709 | 2.51070 | 12074 ft | 330 kts | 274° |
| 2026-05-04 21:09 | 48.46876 | 2.47687 | 11949 ft | 319 kts | 274° |
| 2026-05-04 21:09 | 48.47037 | 2.44418 | 11815 ft | 308 kts | 274° |
| 2026-05-04 21:10 | 48.47187 | 2.41238 | 11658 ft | 299 kts | 273° |
| 2026-05-04 21:10 | 48.47326 | 2.38133 | 11369 ft | 296 kts | 273° |
| 2026-05-04 21:10 | 48.47462 | 2.35038 | 10980 ft | 297 kts | 272° |
| 2026-05-04 21:10 | 48.47570 | 2.31934 | 10584 ft | 297 kts | 272° |
| 2026-05-04 21:11 | 48.47672 | 2.28818 | 10197 ft | 297 kts | 272° |
| 2026-05-04 21:11 | 48.47772 | 2.25714 | 9846 ft | 296 kts | 272° |
| 2026-05-04 21:11 | 48.47870 | 2.22636 | 9443 ft | 295 kts | 272° |
| 2026-05-04 21:11 | 48.47969 | 2.19537 | 8965 ft | 296 kts | 272° |
| 2026-05-04 21:12 | 48.48065 | 2.16439 | 8505 ft | 297 kts | 272° |
| 2026-05-04 21:12 | 48.48159 | 2.13335 | 8055 ft | 297 kts | 272° |
| 2026-05-04 21:12 | 48.48248 | 2.10293 | 7592 ft | 289 kts | 272° |
| 2026-05-04 21:12 | 48.48332 | 2.07317 | 7149 ft | 282 kts | 272° |
| 2026-05-04 21:13 | 48.48412 | 2.04385 | 6715 ft | 279 kts | 272° |
| 2026-05-04 21:13 | 48.48487 | 2.01449 | 6359 ft | 279 kts | 272° |
| 2026-05-04 21:13 | 48.48559 | 1.98542 | 6029 ft | 277 kts | 272° |
| 2026-05-04 21:13 | 48.48655 | 1.95650 | 5765 ft | 277 kts | 278° |
| 2026-05-04 21:14 | 48.49338 | 1.92984 | 5414 ft | 272 kts | 307° |
| 2026-05-04 21:14 | 48.50701 | 1.91054 | 5213 ft | 270 kts | 328° |
| 2026-05-04 21:14 | 48.52410 | 1.89930 | 5010 ft | 269 kts | 348° |
| 2026-05-04 21:14 | 48.54260 | 1.89731 | 4812 ft | 266 kts | 7° |
| 2026-05-04 21:15 | 48.56026 | 1.90459 | 4646 ft | 263 kts | 26° |
| 2026-05-04 21:15 | 48.57526 | 1.92008 | 4512 ft | 262 kts | 45° |
| 2026-05-04 21:15 | 48.58612 | 1.94201 | 4380 ft | 261 kts | 62° |
| 2026-05-04 21:15 | 48.59472 | 1.96605 | 4258 ft | 260 kts | 62° |
| 2026-05-04 21:16 | 48.60333 | 1.99006 | 4134 ft | 260 kts | 62° |
| 2026-05-04 21:16 | 48.61196 | 2.01409 | 4011 ft | 257 kts | 62° |
| 2026-05-04 21:16 | 48.62021 | 2.03709 | 3972 ft | 241 kts | 62° |
| 2026-05-04 21:16 | 48.62791 | 2.05858 | 3975 ft | 224 kts | 62° |
| 2026-05-04 21:17 | 48.63521 | 2.07896 | 3831 ft | 218 kts | 62° |
| 2026-05-04 21:17 | 48.64240 | 2.09905 | 3567 ft | 217 kts | 62° |
| 2026-05-04 21:17 | 48.64483 | 2.10587 | 3472 ft | 217 kts | 62° |
| 2026-05-04 21:17 | 48.64729 | 2.11275 | 3375 ft | 215 kts | 62° |
| 2026-05-04 21:18 | 48.65531 | 2.13517 | 3078 ft | 203 kts | 62° |
| 2026-05-04 21:18 | 48.66179 | 2.15334 | 2796 ft | 190 kts | 62° |
| 2026-05-04 21:18 | 48.66789 | 2.17045 | 2539 ft | 180 kts | 62° |
| 2026-05-04 21:18 | 48.67367 | 2.18666 | 2304 ft | 169 kts | 61° |
| 2026-05-04 21:19 | 48.67902 | 2.20170 | 2102 ft | 153 kts | 61° |
| 2026-05-04 21:19 | 48.68387 | 2.21530 | 1883 ft | 142 kts | 61° |
| 2026-05-04 21:19 | 48.68845 | 2.22817 | 1648 ft | 137 kts | 61° |
| 2026-05-04 21:19 | 48.69294 | 2.24087 | 1449 ft | 136 kts | 61° |
| 2026-05-04 21:20 | 48.69742 | 2.25356 | 1290 ft | 137 kts | 60° |
| 2026-05-04 21:20 | 48.70196 | 2.26628 | 1106 ft | 138 kts | 61° |
| 2026-05-04 21:20 | 48.70651 | 2.27906 | 932 ft | 138 kts | 60° |
| 2026-05-04 21:20 | 48.71104 | 2.29182 | 747 ft | 137 kts | 60° |
| 2026-05-04 21:21 | 48.71561 | 2.30450 | 570 ft | 137 kts | 60° |
| 2026-05-04 21:21 | 48.72011 | 2.31720 | 391 ft | 136 kts | 60° |
| 2026-05-04 21:21 | 48.72452 | 2.32972 | 297 ft | 126 kts | 62° |
| 2026-05-04 21:21 | 48.72788 | 2.33920 | 295 ft | 80 kts | 61° |
| 2026-05-04 21:22 | 48.72965 | 2.34438 | 292 ft | 31 kts | 75° |
| 2026-05-04 21:22 | 48.73008 | 2.34736 | 295 ft | 28 kts | 81° |
| 2026-05-04 21:22 | 48.73036 | 2.35013 | 295 ft | 21 kts | 79° |
| 2026-05-04 21:22 | 48.73042 | 2.35126 | 290 ft | 0 kts | 97° |
| 2026-05-04 21:23 | 48.73037 | 2.35157 | 291 ft | 5 kts | 105° |
| 2026-05-04 21:24 | 48.73018 | 2.35232 | 293 ft | 10 kts | 109° |
| 2026-05-04 21:24 | 48.73023 | 2.35356 | 293 ft | 14 kts | 73° |
| 2026-05-04 21:24 | 48.73075 | 2.35496 | 293 ft | 16 kts | 58° |
| 2026-05-04 21:24 | 48.73081 | 2.35609 | 292 ft | 6 kts | 157° |
| 2026-05-04 21:25 | 48.73062 | 2.35658 | 292 ft | 8 kts | 78° |
| 2026-05-04 21:25 | 48.73102 | 2.35761 | 291 ft | 10 kts | 58° |
| 2026-05-04 21:25 | 48.73135 | 2.35836 | 293 ft | 6 kts | 56° |
| 2026-05-04 21:25 | 48.73154 | 2.35879 | 294 ft | 3 kts | 56° |
| 2026-05-04 21:26 | 48.73151 | 2.35903 | 293 ft | 3 kts | 147° |
| 2026-05-04 21:26 | 48.73116 | 2.35920 | 293 ft | 5 kts | 163° |
| 2026-05-04 21:26 | 48.73101 | 2.35926 | 293 ft | 0 kts | 165° |